Time;durP1;ratioP1;P1;durP2;ratioP2;P2;SDS_P1;SDS_P2;PMS_P1;PMS_P2;Temp;Humidity;BMP_temperature;BMP_pressure;BME280_temperature;BME280_humidity;BME280_pressure;Samples;Min_cycle;Max_cycle;Signal;HPM_P1;HPM_P2
2022/05/06 00:02:07;;;;;;;10.23;7.00;;;9.10;99.90;;;;;;5116876;28;20259;-67
2022/05/06 00:04:33;;;;;;;10.07;7.03;;;9.10;99.90;;;;;;5116671;28;20283;-67
2022/05/06 00:06:59;;;;;;;9.60;6.90;;;9.10;99.90;;;;;;5116860;28;20264;-67
2022/05/06 00:09:24;;;;;;;12.67;7.90;;;9.20;99.90;;;;;;5097863;28;20220;-67
2022/05/06 00:11:51;;;;;;;11.57;7.50;;;9.20;99.90;;;;;;5116552;28;20551;-68
2022/05/06 00:14:18;;;;;;;10.47;7.50;;;9.20;99.90;;;;;;5097919;28;20219;-67
2022/05/06 00:16:43;;;;;;;10.73;8.00;;;9.20;99.90;;;;;;5098084;28;20176;-68
2022/05/06 00:19:09;;;;;;;11.80;8.10;;;9.00;99.90;;;;;;5115631;28;20187;-67
2022/05/06 00:21:35;;;;;;;11.37;7.60;;;8.80;99.90;;;;;;5097946;28;20172;-67
2022/05/06 00:24:03;;;;;;;14.70;8.07;;;8.90;99.90;;;;;;5115900;28;20169;-68
2022/05/06 00:26:28;;;;;;;12.10;8.00;;;8.90;99.90;;;;;;5116376;28;20536;-67
2022/05/06 00:28:54;;;;;;;10.03;7.47;;;8.90;99.90;;;;;;5097802;28;20275;-67
2022/05/06 00:31:20;;;;;;;11.87;7.53;;;9.00;99.90;;;;;;5116051;28;20185;-67
2022/05/06 00:33:47;;;;;;;13.73;7.87;;;8.90;99.90;;;;;;5116139;28;20177;-67
2022/05/06 00:36:14;;;;;;;9.57;7.53;;;8.90;99.90;;;;;;5115899;28;20192;-67
2022/05/06 00:38:42;;;;;;;13.30;8.83;;;8.90;99.90;;;;;;5115691;28;20176;-68
2022/05/06 00:41:08;;;;;;;14.43;7.90;;;8.90;99.90;;;;;;5115843;28;20289;-67
2022/05/06 00:43:39;;;;;;;13.47;8.17;;;8.80;99.90;;;;;;5115810;28;20173;-67
2022/05/06 00:46:08;;;;;;;10.17;7.00;;;8.70;99.90;;;;;;5097562;28;20196;-68
2022/05/06 00:48:33;;;;;;;8.30;6.70;;;8.50;99.90;;;;;;5115644;28;20696;-68
2022/05/06 00:51:01;;;;;;;10.83;7.50;;;8.30;99.90;;;;;;5115690;28;20257;-68
2022/05/06 00:53:28;;;;;;;9.63;7.10;;;8.20;99.90;;;;;;5115921;28;20172;-67
2022/05/06 00:55:56;;;;;;;13.30;7.43;;;8.10;99.90;;;;;;5115423;28;20207;-68
2022/05/06 00:58:29;;;;;;;9.37;7.83;;;8.20;99.90;;;;;;5115985;28;20176;-67
2022/05/06 01:00:54;;;;;;;8.67;7.13;;;8.40;99.90;;;;;;5097451;28;20688;-67
2022/05/06 01:03:20;;;;;;;13.57;8.57;;;8.40;99.90;;;;;;5115872;28;20200;-67
2022/05/06 01:05:47;;;;;;;13.23;8.17;;;8.30;99.90;;;;;;5115565;28;20567;-67
2022/05/06 01:08:12;;;;;;;12.97;8.40;;;8.40;99.90;;;;;;5097082;28;20724;-68
2022/05/06 01:10:41;;;;;;;10.83;8.17;;;8.30;99.90;;;;;;5115213;28;20259;-67
2022/05/06 01:13:07;;;;;;;10.03;7.73;;;8.30;99.90;;;;;;5115158;28;20703;-67
2022/05/06 01:15:32;;;;;;;13.23;9.17;;;8.30;99.90;;;;;;5115415;28;20232;-67
2022/05/06 01:17:58;;;;;;;11.67;8.93;;;8.30;99.90;;;;;;5115294;28;20536;-67
2022/05/06 01:20:25;;;;;;;13.87;8.77;;;8.20;99.90;;;;;;5115385;28;20204;-67
2022/05/06 01:22:58;;;;;;;13.53;9.03;;;8.20;99.90;;;;;;5115170;28;20172;-67
2022/05/06 01:25:25;;;;;;;11.53;8.53;;;8.20;99.90;;;;;;5114996;28;20297;-67
2022/05/06 01:28:01;;;;;;;10.07;8.10;;;8.30;99.90;;;;;;5096915;28;20632;-67
2022/05/06 01:30:38;;;;;;;11.23;8.63;;;8.30;99.90;;;;;;5115022;28;20156;-67
2022/05/06 01:33:09;;;;;;;12.13;8.83;;;8.20;99.90;;;;;;5114836;28;20636;-67
2022/05/06 01:35:49;;;;;;;10.47;8.13;;;8.20;99.90;;;;;;5114914;28;20569;-67
2022/05/06 01:38:24;;;;;;;11.20;8.40;;;8.10;99.90;;;;;;5115339;28;20184;-67
2022/05/06 01:40:54;;;;;;;12.30;8.27;;;8.00;99.90;;;;;;5115147;28;20156;-66
2022/05/06 01:43:22;;;;;;;10.87;8.43;;;7.90;99.90;;;;;;5115326;28;20214;-66
2022/05/06 01:45:50;;;;;;;10.40;7.90;;;7.70;99.90;;;;;;5097085;28;20196;-66
2022/05/06 01:48:16;;;;;;;11.27;8.30;;;7.60;99.90;;;;;;5115357;28;20183;-66
2022/05/06 01:50:43;;;;;;;16.57;9.00;;;7.50;99.90;;;;;;5096527;28;20267;-66
2022/05/06 01:53:09;;;;;;;11.07;8.60;;;7.50;99.90;;;;;;5114655;28;20176;-66
2022/05/06 01:55:36;;;;;;;11.77;8.17;;;7.50;99.90;;;;;;5114125;28;20196;-66
2022/05/06 01:58:04;;;;;;;15.60;9.00;;;7.50;99.90;;;;;;5114560;28;20544;-66
2022/05/06 02:00:29;;;;;;;9.60;7.83;;;7.70;99.90;;;;;;5114442;28;20168;-66
2022/05/06 02:02:56;;;;;;;11.50;8.77;;;7.70;99.90;;;;;;5114671;28;20221;-66
2022/05/06 02:05:24;;;;;;;13.30;8.40;;;7.70;99.90;;;;;;5096100;28;20204;-66
2022/05/06 02:07:53;;;;;;;11.20;8.40;;;7.80;99.90;;;;;;5114224;28;20333;-66
2022/05/06 02:10:21;;;;;;;10.97;7.90;;;7.80;99.90;;;;;;5114283;28;20191;-66
2022/05/06 02:12:47;;;;;;;9.20;7.90;;;7.80;99.90;;;;;;5114660;28;20556;-66
2022/05/06 02:15:18;;;;;;;11.37;7.77;;;7.80;99.90;;;;;;5114258;28;20677;-66
2022/05/06 02:17:44;;;;;;;10.30;7.30;;;7.80;99.90;;;;;;5114525;28;20173;-66
2022/05/06 02:20:11;;;;;;;9.80;7.40;;;7.70;99.90;;;;;;5114604;28;20566;-66
2022/05/06 02:22:38;;;;;;;12.20;7.67;;;7.70;99.90;;;;;;5114060;28;20164;-66
2022/05/06 02:25:09;;;;;;;12.80;8.63;;;7.70;99.90;;;;;;5113868;28;20222;-66
2022/05/06 02:27:38;;;;;;;11.83;8.97;;;7.70;99.90;;;;;;5114357;28;20156;-66
2022/05/06 02:35:34;;;;;;;13.70;9.30;;;7.50;99.90;;;;;;5114189;28;20227;-66
2022/05/06 02:38:00;;;;;;;10.67;8.43;;;7.50;99.90;;;;;;5114271;28;20649;-66
2022/05/06 02:40:27;;;;;;;13.67;8.90;;;7.50;99.90;;;;;;5113852;28;20234;-67
2022/05/06 02:42:53;;;;;;;12.23;9.17;;;7.50;99.90;;;;;;5115195;28;20169;-66
2022/05/06 02:45:18;;;;;;;12.20;8.43;;;7.40;99.90;;;;;;5100057;28;20202;-66
2022/05/06 02:47:45;;;;;;;12.13;9.00;;;7.20;99.90;;;;;;5118289;28;20268;-66
2022/05/06 02:50:11;;;;;;;12.97;9.33;;;7.20;99.90;;;;;;5118186;28;20180;-66
2022/05/06 02:52:37;;;;;;;11.93;8.30;;;7.10;99.90;;;;;;5118152;28;20179;-66
2022/05/06 02:55:03;;;;;;;15.53;9.20;;;7.10;99.90;;;;;;5117884;28;20204;-66
2022/05/06 02:57:29;;;;;;;12.00;9.47;;;7.10;99.90;;;;;;5118242;28;20616;-66
2022/05/06 02:59:54;;;;;;;11.30;8.77;;;7.10;99.90;;;;;;5118387;28;20211;-66
2022/05/06 03:02:20;;;;;;;11.67;8.87;;;7.20;99.90;;;;;;5118023;28;20630;-66
2022/05/06 03:04:46;;;;;;;11.10;8.63;;;7.10;99.90;;;;;;5118097;28;20626;-66
2022/05/06 03:07:12;;;;;;;11.30;8.67;;;7.20;99.90;;;;;;5117983;28;20231;-66
2022/05/06 03:09:41;;;;;;;13.83;8.97;;;7.10;99.90;;;;;;5117593;28;20559;-66
2022/05/06 03:12:07;;;;;;;12.63;8.70;;;7.00;99.90;;;;;;5117973;28;20704;-66
2022/05/06 03:14:34;;;;;;;13.43;8.07;;;7.10;99.90;;;;;;5117679;28;20587;-67
2022/05/06 03:16:59;;;;;;;11.63;8.20;;;7.00;99.90;;;;;;5117881;28;20187;-67
2022/05/06 03:19:25;;;;;;;11.33;8.67;;;6.90;99.90;;;;;;5118213;28;20173;-67
2022/05/06 03:21:54;;;;;;;10.47;8.67;;;6.90;99.90;;;;;;5118263;28;20251;-67
2022/05/06 03:24:20;;;;;;;10.13;8.43;;;6.90;99.90;;;;;;5117973;28;20192;-67
2022/05/06 03:26:46;;;;;;;11.70;8.73;;;6.90;99.90;;;;;;5117969;28;20184;-67
2022/05/06 03:29:12;;;;;;;11.73;8.40;;;6.90;99.90;;;;;;5118122;28;20226;-68
2022/05/06 03:31:38;;;;;;;12.07;8.73;;;6.90;99.90;;;;;;5099518;28;20204;-67
2022/05/06 03:34:04;;;;;;;12.97;8.87;;;6.80;99.90;;;;;;5117964;28;20203;-67
2022/05/06 03:36:30;;;;;;;11.83;8.50;;;6.80;99.90;;;;;;5117727;28;20199;-66
2022/05/06 03:38:55;;;;;;;11.57;9.20;;;6.80;99.90;;;;;;5118041;28;20188;-66
2022/05/06 03:41:21;;;;;;;15.53;9.37;;;6.70;99.90;;;;;;5117512;28;20524;-66
2022/05/06 03:43:47;;;;;;;11.87;8.47;;;6.70;99.90;;;;;;5118467;28;20173;-66
2022/05/06 03:46:13;;;;;;;12.07;9.17;;;6.60;99.90;;;;;;5118586;28;20617;-66
2022/05/06 03:48:39;;;;;;;13.83;9.23;;;6.50;99.90;;;;;;5127303;28;20613;-66
2022/05/06 03:51:20;;;;;;;13.77;9.10;;;6.40;99.90;;;;;;5124464;28;20255;-67
2022/05/06 03:53:52;;;;;;;15.67;9.17;;;6.40;99.90;;;;;;5101659;28;20173;-67
2022/05/06 03:56:23;;;;;;;15.87;9.63;;;6.30;99.90;;;;;;5118246;28;20245;-66
2022/05/06 03:58:49;;;;;;;11.37;9.00;;;6.30;99.90;;;;;;5100614;28;20233;-66
2022/05/06 04:01:19;;;;;;;10.93;8.17;;;6.20;99.90;;;;;;5119060;28;20185;-66
2022/05/06 04:03:47;;;;;;;12.30;8.87;;;6.30;99.90;;;;;;5118202;28;20183;-67
2022/05/06 04:06:14;;;;;;;13.07;9.20;;;6.30;99.90;;;;;;5117713;28;20196;-66
2022/05/06 04:08:43;;;;;;;11.73;8.80;;;6.30;99.90;;;;;;5117291;28;20238;-66
2022/05/06 04:11:13;;;;;;;13.63;9.40;;;6.20;99.90;;;;;;5116826;28;20172;-66
2022/05/06 04:13:39;;;;;;;9.27;8.13;;;6.10;99.90;;;;;;5098455;28;20199;-66
2022/05/06 04:16:06;;;;;;;11.23;8.47;;;6.00;99.90;;;;;;5098489;28;20233;-66
2022/05/06 04:18:32;;;;;;;11.70;8.43;;;5.90;99.90;;;;;;5116832;28;20207;-66
2022/05/06 04:23:42;;;;;;;8.73;7.83;;;5.70;99.90;;;;;;5116832;28;20659;-67
2022/05/06 04:26:11;;;;;;;9.67;8.10;;;5.80;99.90;;;;;;5116360;28;20196;-66
2022/05/06 04:28:37;;;;;;;11.13;8.17;;;5.80;99.90;;;;;;5098306;28;20180;-66
2022/05/06 04:31:04;;;;;;;12.07;9.00;;;5.80;99.90;;;;;;5098123;28;20180;-66
2022/05/06 04:33:30;;;;;;;11.87;8.93;;;5.80;99.90;;;;;;5116868;28;20534;-67
2022/05/06 04:35:59;;;;;;;10.97;8.50;;;5.90;99.90;;;;;;5116188;28;20311;-67
2022/05/06 04:38:25;;;;;;;12.17;8.13;;;6.00;99.90;;;;;;5116409;28;20172;-67
2022/05/06 04:40:54;;;;;;;13.43;8.30;;;6.00;99.90;;;;;;5116247;28;20156;-67
2022/05/06 04:43:20;;;;;;;11.37;8.80;;;6.00;99.90;;;;;;5116359;28;20621;-66
2022/05/06 04:45:47;;;;;;;10.47;8.00;;;6.00;99.90;;;;;;5116460;28;20218;-66
2022/05/06 04:48:13;;;;;;;11.47;7.77;;;6.10;99.90;;;;;;5116055;28;20176;-66
2022/05/06 04:50:40;;;;;;;10.67;7.83;;;6.20;99.90;;;;;;5116281;28;20263;-67
2022/05/06 04:53:07;;;;;;;13.07;8.33;;;6.20;99.90;;;;;;5116069;28;20180;-66
2022/05/06 04:55:34;;;;;;;11.57;8.20;;;6.30;99.90;;;;;;5097290;28;20229;-66
2022/05/06 04:58:00;;;;;;;11.40;7.93;;;6.40;99.90;;;;;;5116312;28;20176;-66
2022/05/06 05:00:25;;;;;;;11.43;8.77;;;6.50;99.90;;;;;;5116110;28;20545;-67
2022/05/06 05:02:51;;;;;;;13.77;8.37;;;6.60;99.90;;;;;;5115603;28;20542;-66
2022/05/06 05:05:18;;;;;;;11.17;8.00;;;6.70;99.90;;;;;;5115174;28;20608;-66
2022/05/06 05:07:44;;;;;;;14.53;8.60;;;6.80;99.90;;;;;;5097312;28;20313;-66
2022/05/06 05:10:10;;;;;;;12.30;9.13;;;6.90;99.90;;;;;;5115374;28;20266;-66
2022/05/06 05:12:36;;;;;;;13.57;8.33;;;7.10;99.90;;;;;;5096967;28;20196;-66
2022/05/06 05:15:03;;;;;;;15.13;9.10;;;7.20;99.90;;;;;;5096980;28;20375;-66
2022/05/06 05:17:29;;;;;;;12.50;8.63;;;7.40;99.90;;;;;;5115186;28;20256;-66
2022/05/06 05:19:55;;;;;;;14.53;7.93;;;7.40;99.90;;;;;;5115356;28;20255;-67
2022/05/06 05:22:21;;;;;;;11.47;8.50;;;7.50;99.90;;;;;;5115630;28;20544;-67
2022/05/06 05:24:47;;;;;;;10.03;7.70;;;7.50;99.90;;;;;;5114649;28;20200;-67
2022/05/06 05:27:14;;;;;;;13.13;7.80;;;7.50;99.90;;;;;;5115167;28;20196;-67
2022/05/06 05:29:41;;;;;;;11.07;8.60;;;7.60;99.90;;;;;;5114851;28;20271;-67
2022/05/06 05:32:07;;;;;;;17.03;7.87;;;7.70;99.90;;;;;;5114921;28;20188;-67
2022/05/06 05:34:33;;;;;;;12.10;8.30;;;7.70;99.90;;;;;;5114985;28;20199;-67
2022/05/06 05:36:59;;;;;;;10.13;8.10;;;7.80;99.90;;;;;;5115300;28;20541;-67
2022/05/06 05:39:24;;;;;;;11.13;7.83;;;7.80;99.90;;;;;;5114914;28;20184;-66
2022/05/06 05:41:50;;;;;;;10.63;8.33;;;7.90;99.90;;;;;;5114437;28;20175;-67
2022/05/06 05:49:44;;;;;;;21.20;8.47;;;8.20;99.90;;;;;;5114884;28;20560;-67
2022/05/06 05:52:10;;;;;;;11.63;7.83;;;8.30;99.90;;;;;;5114540;28;20625;-67
2022/05/06 05:54:36;;;;;;;11.80;7.83;;;8.30;99.90;;;;;;5114014;28;20204;-67
2022/05/06 05:57:03;;;;;;;16.40;8.67;;;8.40;99.90;;;;;;5114398;28;20177;-66
2022/05/06 05:59:29;;;;;;;11.63;8.07;;;8.50;99.90;;;;;;5096068;28;20604;-67
2022/05/06 06:01:55;;;;;;;11.63;8.40;;;8.50;99.90;;;;;;5096036;28;20255;-67
2022/05/06 06:04:21;;;;;;;12.77;8.03;;;8.60;99.90;;;;;;5096044;28;20219;-67
2022/05/06 06:06:46;;;;;;;12.70;8.10;;;8.70;99.90;;;;;;5114550;28;20632;-67
2022/05/06 06:09:13;;;;;;;13.40;8.60;;;8.80;99.90;;;;;;5114412;28;20180;-66
2022/05/06 06:11:39;;;;;;;14.27;9.43;;;8.80;99.90;;;;;;5095904;28;20216;-66
2022/05/06 06:14:05;;;;;;;11.37;8.67;;;8.90;99.90;;;;;;5095941;28;20224;-67
2022/05/06 06:16:31;;;;;;;14.50;9.03;;;8.90;99.90;;;;;;5114141;28;20184;-66
2022/05/06 06:18:58;;;;;;;15.17;9.03;;;9.10;99.90;;;;;;5113642;28;20183;-66
2022/05/06 06:21:27;;;;;;;14.93;8.97;;;9.20;99.90;;;;;;5114035;28;20161;-66
2022/05/06 06:23:53;;;;;;;14.63;8.70;;;9.40;99.90;;;;;;5114055;28;20177;-66
2022/05/06 06:26:18;;;;;;;13.33;8.80;;;9.40;99.90;;;;;;5113650;28;20196;-66
2022/05/06 06:28:44;;;;;;;13.00;8.77;;;9.60;99.90;;;;;;5114243;28;20172;-66
2022/05/06 06:31:10;;;;;;;15.00;8.50;;;9.70;99.90;;;;;;5095811;28;20187;-66
2022/05/06 06:33:38;;;;;;;12.70;8.60;;;9.90;99.90;;;;;;5113899;28;20184;-66
2022/05/06 06:36:09;;;;;;;11.63;9.13;;;10.10;99.90;;;;;;5095462;28;20691;-66
2022/05/06 06:38:35;;;;;;;15.23;9.67;;;10.30;99.90;;;;;;5113819;28;20180;-66
2022/05/06 06:41:01;;;;;;;14.33;9.10;;;10.40;99.90;;;;;;5095257;28;20180;-66
2022/05/06 06:43:27;;;;;;;12.07;8.97;;;10.50;99.90;;;;;;5113905;28;20203;-66
2022/05/06 06:45:53;;;;;;;14.00;8.83;;;10.60;99.90;;;;;;5113707;28;20219;-66
2022/05/06 06:48:19;;;;;;;14.20;8.87;;;10.70;99.90;;;;;;5113964;28;20176;-66
2022/05/06 06:50:45;;;;;;;11.40;9.03;;;10.80;99.90;;;;;;5095447;28;20185;-66
2022/05/06 06:53:11;;;;;;;12.53;8.57;;;10.90;99.90;;;;;;5113740;28;20260;-66
2022/05/06 06:55:37;;;;;;;16.17;9.33;;;11.10;99.90;;;;;;5113418;28;20210;-66
2022/05/06 06:58:03;;;;;;;13.13;8.90;;;11.30;99.90;;;;;;5113595;28;20176;-66
2022/05/06 07:00:29;;;;;;;12.63;8.90;;;11.40;99.90;;;;;;5095408;28;20182;-66
2022/05/06 07:02:57;;;;;;;12.17;8.53;;;11.60;99.90;;;;;;5113955;28;20172;-66
2022/05/06 07:05:23;;;;;;;10.50;8.43;;;11.60;99.90;;;;;;5113537;28;20252;-66
2022/05/06 07:13:17;;;;;;;11.73;8.60;;;12.10;99.90;;;;;;5113480;28;20215;-66
2022/05/06 07:15:43;;;;;;;13.80;8.37;;;12.30;99.90;;;;;;5113343;28;20204;-66
2022/05/06 07:18:09;;;;;;;11.13;8.07;;;12.60;99.90;;;;;;5113440;28;20306;-66
2022/05/06 07:20:36;;;;;;;10.63;7.77;;;12.70;99.90;;;;;;5113474;28;20157;-66
2022/05/06 07:23:04;;;;;;;12.07;7.73;;;12.90;99.90;;;;;;5095359;28;20208;-68
2022/05/06 07:25:30;;;;;;;9.17;7.13;;;12.90;99.90;;;;;;5094884;28;20204;-68
2022/05/06 07:27:56;;;;;;;8.48;7.18;;;13.10;99.90;;;;;;5113347;28;20180;-68
2022/05/06 07:30:22;;;;;;;12.23;7.17;;;13.20;99.90;;;;;;5116877;28;20184;-68
2022/05/06 07:32:48;;;;;;;12.43;7.38;;;13.20;99.90;;;;;;5117507;28;20165;-68
2022/05/06 07:35:14;;;;;;;13.80;7.07;;;13.40;99.90;;;;;;5098794;28;20208;-68
2022/05/06 07:37:41;;;;;;;11.40;6.88;;;13.50;99.90;;;;;;5117250;28;20180;-68
2022/05/06 07:40:10;;;;;;;10.57;7.20;;;13.70;99.90;;;;;;5098497;28;20176;-68
2022/05/06 07:42:36;;;;;;;10.30;6.63;;;13.90;99.90;;;;;;5098890;28;20184;-68
2022/05/06 07:45:03;;;;;;;10.55;6.82;;;14.10;99.90;;;;;;5117974;28;20525;-68
2022/05/06 07:47:29;;;;;;;8.90;6.43;;;14.20;99.90;;;;;;5117873;28;20157;-67
2022/05/06 07:49:55;;;;;;;8.82;6.47;;;14.40;99.90;;;;;;5117178;28;20195;-67
2022/05/06 07:52:21;;;;;;;8.68;6.72;;;14.50;99.90;;;;;;5098904;28;20644;-68
2022/05/06 07:54:46;;;;;;;11.15;6.40;;;14.60;99.90;;;;;;5119315;28;20583;-66
2022/05/06 07:57:12;;;;;;;11.88;7.25;;;14.50;99.90;;;;;;5118226;28;20217;-66
2022/05/06 07:59:38;;;;;;;10.73;7.00;;;14.70;99.90;;;;;;5119194;28;20260;-65
2022/05/06 08:04:48;;;;;;;11.80;6.65;;;15.00;99.90;;;;;;5117934;28;20249;-66
2022/05/06 08:07:15;;;;;;;11.30;6.80;;;15.10;99.90;;;;;;5117506;28;20161;-66
2022/05/06 08:09:42;;;;;;;11.40;7.13;;;15.20;99.90;;;;;;5117005;28;20548;-68
2022/05/06 08:12:09;;;;;;;11.32;6.55;;;15.40;99.90;;;;;;5116858;28;20173;-67
2022/05/06 08:14:35;;;;;;;12.50;6.93;;;15.50;99.90;;;;;;5116983;28;20208;-69
2022/05/06 08:17:02;;;;;;;12.43;6.90;;;15.70;99.90;;;;;;5118403;28;20183;-67
2022/05/06 08:19:27;;;;;;;13.73;6.65;;;15.90;99.90;;;;;;5116911;28;20170;-67
2022/05/06 08:21:54;;;;;;;9.10;6.45;;;16.10;99.90;;;;;;5098414;28;20187;-68
2022/05/06 08:24:20;;;;;;;14.27;6.32;;;16.30;99.90;;;;;;5116760;28;20184;-69
2022/05/06 08:26:47;;;;;;;11.07;6.57;;;16.70;99.90;;;;;;5116378;28;20176;-69
2022/05/06 08:29:13;;;;;;;7.55;4.40;;;17.10;99.90;;;;;;5116482;28;20625;-69
2022/05/06 08:31:40;;;;;;;9.75;5.85;;;17.40;99.90;;;;;;5116218;28;20172;-68
2022/05/06 08:34:07;;;;;;;7.13;5.43;;;17.70;99.90;;;;;;5097735;28;20172;-68
2022/05/06 08:36:35;;;;;;;9.20;5.50;;;17.80;99.90;;;;;;5097790;28;20204;-69
2022/05/06 08:39:02;;;;;;;9.05;5.25;;;17.90;99.90;;;;;;5116020;28;20191;-69
2022/05/06 08:41:27;;;;;;;7.40;4.85;;;18.00;99.90;;;;;;5097001;28;20169;-69
2022/05/06 08:43:53;;;;;;;11.82;5.57;;;18.10;99.90;;;;;;5115978;28;20243;-68
2022/05/06 08:51:52;;;;;;;7.70;4.55;;;18.00;99.90;;;;;;5116513;28;20572;-69
2022/05/06 08:54:18;;;;;;;13.75;5.97;;;18.10;99.90;;;;;;5097526;28;20204;-68
2022/05/06 08:56:44;;;;;;;9.63;5.20;;;18.20;99.90;;;;;;5115645;28;20261;-68
2022/05/06 08:59:10;;;;;;;9.05;5.03;;;18.30;99.90;;;;;;5115789;28;20164;-69
2022/05/06 09:01:35;;;;;;;7.80;5.20;;;18.50;99.90;;;;;;5097559;28;20173;-69
2022/05/06 09:04:01;;;;;;;11.05;6.10;;;18.40;99.90;;;;;;5115565;28;20251;-68
2022/05/06 09:06:29;;;;;;;8.48;5.13;;;18.60;99.90;;;;;;5097193;28;20176;-69
2022/05/06 09:08:59;;;;;;;13.48;6.18;;;18.60;99.90;;;;;;5115629;28;20184;-68
2022/05/06 09:16:39;;;;;;;10.80;5.28;;;18.60;99.90;;;;;;5115776;28;20203;-68
2022/05/06 09:17:22;;;;;;;8.80;5.47;;;18.90;99.90;;;;;;5114830;28;20188;-69
2022/05/06 09:19:48;;;;;;;11.68;7.03;;;19.20;99.90;;;;;;5115668;28;20631;-69
2022/05/06 09:22:17;;;;;;;8.85;5.55;;;19.50;99.90;;;;;;5115347;28;20201;-69
2022/05/06 09:24:47;;;;;;;9.85;5.57;;;19.60;99.90;;;;;;5115396;28;20200;-69
2022/05/06 09:27:17;;;;;;;10.98;6.75;;;19.90;99.90;;;;;;5115097;28;20152;-69
2022/05/06 09:29:44;;;;;;;10.32;6.03;;;20.20;99.90;;;;;;5115586;28;20207;-69
2022/05/06 09:32:27;;;;;;;11.10;5.90;;;20.30;99.90;;;;;;5097003;28;20172;-69
2022/05/06 09:34:58;;;;;;;12.68;6.65;;;20.50;99.90;;;;;;5114976;28;20196;-69
2022/05/06 09:37:30;;;;;;;10.43;6.50;;;20.40;99.90;;;;;;5096978;28;20176;-69
2022/05/06 09:40:01;;;;;;;11.68;6.40;;;20.60;99.90;;;;;;5096758;28;20656;-69
2022/05/06 09:42:27;;;;;;;10.98;6.28;;;20.60;99.90;;;;;;5114822;28;20172;-69
2022/05/06 09:44:53;;;;;;;11.63;6.85;;;20.70;99.90;;;;;;5116163;28;20267;-67
2022/05/06 09:47:20;;;;;;;8.38;5.85;;;20.90;99.90;;;;;;5115418;28;20737;-68
2022/05/06 09:49:46;;;;;;;13.93;5.88;;;21.10;99.90;;;;;;5115637;28;20207;-68
2022/05/06 09:52:13;;;;;;;11.90;6.50;;;21.20;99.90;;;;;;5116511;28;20173;-68
2022/05/06 09:54:41;;;;;;;10.35;6.07;;;21.20;99.60;;;;;;5115828;28;20211;-68
2022/05/06 09:57:09;;;;;;;16.00;6.50;;;21.20;99.90;;;;;;5115342;28;20164;-69
2022/05/06 09:59:36;;;;;;;9.85;6.25;;;21.20;99.90;;;;;;5115234;28;20179;-68
2022/05/06 10:02:03;;;;;;;10.23;6.45;;;21.30;99.90;;;;;;5115287;28;20641;-69
2022/05/06 10:04:29;;;;;;;15.25;7.05;;;21.30;99.90;;;;;;5114891;28;20184;-69
2022/05/06 10:07:00;;;;;;;16.17;7.00;;;21.10;96.50;;;;;;5115215;28;20686;-69
2022/05/06 10:09:27;;;;;;;11.90;7.28;;;21.10;99.90;;;;;;5096658;28;20176;-69
2022/05/06 10:11:55;;;;;;;13.23;7.40;;;21.10;99.00;;;;;;5114588;28;20176;-69
2022/05/06 10:14:22;;;;;;;10.80;6.00;;;21.20;98.90;;;;;;5114682;28;20287;-69
2022/05/06 10:16:48;;;;;;;9.73;6.25;;;21.10;98.50;;;;;;5114943;28;20672;-69
2022/05/06 10:19:40;;;;;;;13.63;6.93;;;21.40;99.90;;;;;;5114424;28;20211;-69
2022/05/06 10:22:06;;;;;;;12.15;6.75;;;21.30;98.30;;;;;;5110102;28;20191;-68
2022/05/06 10:24:43;;;;;;;11.38;6.95;;;21.20;96.80;;;;;;5114725;28;20712;-69
2022/05/06 10:33:15;;;;;;;11.43;6.85;;;21.30;98.40;;;;;;5082711;28;20526;-69
2022/05/06 10:35:42;;;;;;;8.50;6.70;;;21.50;98.50;;;;;;5114176;28;20203;-69
2022/05/06 10:38:21;;;;;;;11.75;7.00;;;21.70;95.90;;;;;;5114339;28;20180;-69
2022/05/06 10:41:02;;;;;;;12.32;7.47;;;21.70;96.40;;;;;;5114287;28;20160;-69
2022/05/06 10:43:40;;;;;;;9.52;6.55;;;21.90;96.00;;;;;;5114309;28;20160;-69
2022/05/06 10:46:10;;;;;;;9.27;6.38;;;21.60;95.00;;;;;;5114052;28;20196;-68
2022/05/06 10:48:35;;;;;;;12.52;7.70;;;21.80;97.50;;;;;;5095742;28;20176;-69
2022/05/06 10:51:24;;;;;;;16.02;8.43;;;21.80;94.40;;;;;;5095637;28;20180;-68
2022/05/06 10:53:51;;;;;;;14.18;7.55;;;21.00;94.50;;;;;;5114366;28;20157;-69
2022/05/06 10:56:17;;;;;;;10.48;6.88;;;21.00;99.60;;;;;;5113376;28;20204;-68
2022/05/06 10:58:43;;;;;;;10.35;5.70;;;21.30;97.80;;;;;;5113914;28;20160;-69
2022/05/06 11:01:16;;;;;;;9.38;5.93;;;21.70;95.10;;;;;;5113901;28;20270;-69
2022/05/06 11:03:54;;;;;;;7.68;4.97;;;22.00;95.40;;;;;;5114693;28;20165;-69
2022/05/06 11:06:24;;;;;;;8.13;5.00;;;22.30;93.60;;;;;;5117715;28;20192;-69
2022/05/06 11:08:50;;;;;;;8.65;6.00;;;22.60;93.30;;;;;;5117831;28;20180;-69
2022/05/06 11:11:19;;;;;;;8.70;5.90;;;22.80;91.60;;;;;;5099170;28;20225;-69
2022/05/06 11:13:47;;;;;;;7.50;4.80;;;23.10;92.00;;;;;;5117562;28;20180;-69
2022/05/06 11:16:14;;;;;;;10.18;5.65;;;23.10;91.60;;;;;;5099212;28;20200;-69
2022/05/06 11:18:47;;;;;;;9.30;5.43;;;22.60;90.50;;;;;;5117812;28;20628;-69
2022/05/06 11:21:31;;;;;;;9.90;5.60;;;22.40;93.10;;;;;;5118283;28;20511;-68
2022/05/06 11:23:57;;;;;;;11.18;5.72;;;22.40;93.40;;;;;;5118762;28;20190;-71
2022/05/06 11:26:26;;;;;;;11.40;7.32;;;22.60;94.30;;;;;;5117954;28;20284;-69
2022/05/06 11:29:05;;;;;;;12.20;6.68;;;22.30;90.60;;;;;;5118120;28;20173;-69
2022/05/06 11:31:31;;;;;;;9.27;5.95;;;21.80;90.90;;;;;;5117327;28;20184;-69
2022/05/06 11:34:02;;;;;;;11.70;6.78;;;21.40;93.90;;;;;;5117897;28;20202;-69
2022/05/06 11:36:27;;;;;;;12.30;7.45;;;21.00;93.00;;;;;;5117276;28;20180;-69
2022/05/06 11:38:53;;;;;;;9.85;6.72;;;20.50;93.00;;;;;;5117027;28;20520;-69
2022/05/06 11:41:20;;;;;;;9.88;5.97;;;20.60;94.90;;;;;;5098506;28;20176;-68
2022/05/06 11:43:47;;;;;;;10.60;5.53;;;21.30;97.10;;;;;;5117351;28;20175;-69
2022/05/06 11:49:01;;;;;;;9.70;5.75;;;23.00;92.60;;;;;;5117275;28;20238;-69
2022/05/06 11:51:31;;;;;;;10.23;6.68;;;23.50;91.20;;;;;;5117043;28;20581;-69
2022/05/06 11:53:57;;;;;;;8.45;5.07;;;23.30;89.00;;;;;;5117111;28;20188;-69
2022/05/06 11:56:26;;;;;;;11.70;6.38;;;23.90;91.30;;;;;;5116486;28;20290;-69
2022/05/06 11:58:55;;;;;;;14.00;6.28;;;24.10;91.10;;;;;;5117028;28;20167;-69
2022/05/06 12:01:32;;;;;;;8.30;5.50;;;24.30;86.00;;;;;;5116745;28;20183;-69
2022/05/06 12:04:00;;;;;;;10.82;6.57;;;24.60;88.90;;;;;;5116814;28;20157;-69
2022/05/06 12:06:28;;;;;;;8.57;6.53;;;24.30;82.00;;;;;;5098224;28;20176;-69
2022/05/06 12:09:14;;;;;;;15.77;7.38;;;23.90;86.10;;;;;;5116728;28;20309;-69
2022/05/06 12:11:41;;;;;;;11.57;6.40;;;24.20;87.10;;;;;;5116536;28;20180;-69
2022/05/06 12:14:13;;;;;;;10.68;6.45;;;23.90;82.20;;;;;;5098013;28;20618;-69
2022/05/06 12:17:00;;;;;;;10.50;6.50;;;23.70;80.70;;;;;;5115942;28;20188;-69
2022/05/06 12:19:33;;;;;;;11.30;6.80;;;23.20;83.00;;;;;;5098642;28;20523;-69
2022/05/06 12:22:21;;;;;;;10.48;7.13;;;22.80;84.70;;;;;;5098107;28;20259;-69
2022/05/06 12:24:55;;;;;;;14.73;7.53;;;22.70;87.70;;;;;;5097875;28;20196;-69
2022/05/06 12:27:37;;;;;;;12.75;6.93;;;22.20;89.30;;;;;;5115956;28;20700;-69
2022/05/06 12:30:03;;;;;;;11.55;6.53;;;22.10;90.20;;;;;;5116634;28;20236;-69
2022/05/06 12:32:29;;;;;;;13.57;7.13;;;22.50;89.50;;;;;;5097892;28;20276;-69
2022/05/06 12:35:10;;;;;;;13.00;8.70;;;22.90;89.50;;;;;;5097782;28;20591;-69
2022/05/06 12:37:52;;;;;;;13.68;7.82;;;23.10;87.60;;;;;;5116009;28;20157;-69
2022/05/06 12:40:17;;;;;;;14.50;8.85;;;22.80;88.40;;;;;;5116328;28;20157;-69
2022/05/06 12:42:43;;;;;;;16.42;8.85;;;22.80;88.30;;;;;;5115590;28;20728;-69
2022/05/06 12:45:12;;;;;;;14.48;8.25;;;23.00;90.80;;;;;;5115889;28;20232;-69
2022/05/06 12:50:22;;;;;;;15.52;8.85;;;23.80;85.10;;;;;;5116339;28;20213;-69
2022/05/06 12:52:47;;;;;;;15.60;10.40;;;24.10;85.60;;;;;;5116234;28;20172;-69
2022/05/06 12:55:13;;;;;;;14.40;8.85;;;24.10;83.40;;;;;;5115572;28;20279;-69
2022/05/06 12:57:39;;;;;;;14.65;8.93;;;24.30;86.10;;;;;;5115353;28;20169;-70
2022/05/06 13:00:05;;;;;;;12.13;7.47;;;24.20;84.60;;;;;;5097548;28;20195;-69
2022/05/06 13:02:31;;;;;;;11.45;8.82;;;24.70;84.10;;;;;;5115522;28;20169;-70
2022/05/06 13:04:57;;;;;;;12.13;8.23;;;24.50;82.70;;;;;;5115413;28;20184;-71
2022/05/06 13:07:23;;;;;;;11.27;8.27;;;24.40;81.90;;;;;;5097229;28;20172;-69
2022/05/06 13:09:48;;;;;;;11.93;7.50;;;24.40;84.40;;;;;;5115449;28;20693;-69
2022/05/06 13:12:14;;;;;;;15.75;7.90;;;24.70;81.30;;;;;;5097253;28;20659;-68
2022/05/06 13:14:40;;;;;;;17.95;10.82;;;25.20;83.70;;;;;;5116085;28;20211;-65
2022/05/06 13:17:05;;;;;;;17.38;9.88;;;25.20;78.30;;;;;;5116913;28;20241;-67
2022/05/06 13:19:31;;;;;;;14.75;8.95;;;24.60;81.00;;;;;;5116659;28;20180;-68
2022/05/06 13:21:58;;;;;;;12.25;7.70;;;24.40;80.80;;;;;;5116240;28;20177;-70
2022/05/06 13:24:23;;;;;;;14.30;8.45;;;24.60;80.90;;;;;;5115185;28;20260;-68
2022/05/06 13:26:50;;;;;;;13.10;8.88;;;24.50;85.20;;;;;;5114801;28;20196;-69
2022/05/06 13:29:15;;;;;;;15.32;10.85;;;24.30;85.60;;;;;;5115412;28;20181;-68